Time;durP1;ratioP1;P1;durP2;ratioP2;P2;SDS_P1;SDS_P2;PMS_P1;PMS_P2;Temp;Humidity;BMP_temperature;BMP_pressure;BME280_temperature;BME280_humidity;BME280_pressure;Samples;Min_cycle;Max_cycle;Signal;HPM_P1;HPM_P2
2023/01/18 00:00:40;;;;;;;12.20;5.43;;;;;;;-146.25;91.91;52508.09;2095600;28;39201;-80
2023/01/18 00:01:42;;;;;;;10.55;5.40;;;;;;;-146.25;92.10;52546.63;2095965;28;35201;-79
2023/01/18 00:02:45;;;;;;;6.97;4.95;;;;;;;-146.25;92.25;52489.84;2096211;28;20164;-79
2023/01/18 00:03:47;;;;;;;11.23;5.70;;;;;;;-146.25;92.22;52489.84;2087193;28;40580;-80
2023/01/18 00:04:49;;;;;;;8.90;5.28;;;;;;;-146.25;91.79;52528.38;2080264;28;35286;-80
2023/01/18 00:05:53;;;;;;;9.73;5.25;;;;;;;-146.25;92.32;52524.31;2086871;28;38618;-80
2023/01/18 00:06:56;;;;;;;8.68;5.57;;;;;;;-146.25;91.77;52518.25;2086519;28;40928;-80
2023/01/18 00:07:57;;;;;;;8.80;5.65;;;;;;;-146.25;92.50;52522.28;2088157;28;34224;-80
2023/01/18 00:08:59;;;;;;;8.27;5.75;;;;;;;-146.25;92.15;52469.56;2095973;28;32285;-80
2023/01/18 00:10:03;;;;;;;9.55;5.10;;;;;;;-146.25;92.45;52510.13;2095066;28;40681;-80
2023/01/18 00:11:11;;;;;;;9.32;5.15;;;;;;;-146.25;92.26;52514.19;2095271;28;37701;-81
2023/01/18 00:12:15;;;;;;;8.00;4.68;;;;;;;-146.25;92.33;52532.44;2087655;28;43068;-80
2023/01/18 00:13:16;;;;;;;11.27;5.57;;;;;;;-146.25;92.82;52520.28;2079049;28;21180;-80
2023/01/18 00:14:18;;;;;;;7.88;5.13;;;;;;;-146.25;92.42;52514.19;2079079;28;41315;-81
2023/01/18 00:15:20;;;;;;;9.07;5.25;;;;;;;-146.25;92.73;52522.28;2088376;28;41126;-81
2023/01/18 00:16:24;;;;;;;10.63;5.78;;;;;;;-146.25;92.36;52512.16;2084686;28;20048;-81
2023/01/18 00:17:26;;;;;;;8.02;5.10;;;;;;;-146.25;92.57;52518.25;2088775;28;39936;-80
2023/01/18 00:18:28;;;;;;;7.43;4.85;;;;;;;-146.25;92.26;52516.22;2097204;28;43106;-81
2023/01/18 00:19:29;;;;;;;9.18;5.50;;;;;;;-146.25;92.47;52457.41;2088649;28;20050;-81
2023/01/18 00:20:31;;;;;;;8.20;5.38;;;;;;;-146.25;92.36;52512.16;2088676;28;40826;-81
2023/01/18 00:21:33;;;;;;;8.82;5.57;;;;;;;-146.25;92.49;52514.19;2088273;28;38378;-81
2023/01/18 00:22:35;;;;;;;8.85;5.10;;;;;;;-146.25;92.13;52526.34;2088525;28;33883;-80
2023/01/18 00:23:37;;;;;;;7.88;5.00;;;;;;;-146.25;91.77;52532.44;2095532;28;41400;-80
2023/01/18 00:24:39;;;;;;;8.18;4.95;;;;;;;-146.25;92.14;52518.25;2096652;28;38614;-81
2023/01/18 00:25:40;;;;;;;7.75;4.60;;;;;;;-146.25;91.69;52504.03;2081672;28;40458;-81
2023/01/18 00:26:47;;;;;;;6.18;4.75;;;;;;;-146.25;91.85;52504.03;2092031;28;41801;-81
2023/01/18 00:27:53;;;;;;;10.48;5.40;;;;;;;-146.25;92.22;52518.25;2079194;28;37346;-81
2023/01/18 00:28:56;;;;;;;7.35;4.75;;;;;;;-146.25;92.07;52487.81;2080865;28;24038;-81
2023/01/18 00:29:58;;;;;;;7.95;5.13;;;;;;;-146.25;92.36;52522.28;2089055;28;20029;-81
2023/01/18 00:31:00;;;;;;;9.38;4.70;;;;;;;-146.25;91.82;52495.94;2088244;28;34415;-81
2023/01/18 00:32:03;;;;;;;7.15;4.43;;;;;;;-146.25;91.79;52542.56;2088541;28;40608;-81
2023/01/18 00:33:04;;;;;;;9.98;4.72;;;;;;;-146.25;91.85;52475.66;2088680;28;38706;-80
2023/01/18 00:34:06;;;;;;;6.90;4.80;;;;;;;-146.25;91.68;52512.16;2089388;28;20045;-81
2023/01/18 00:35:08;;;;;;;8.50;4.80;;;;;;;-146.25;91.87;52542.56;2089743;28;35287;-81
2023/01/18 00:36:11;;;;;;;6.88;4.60;;;;;;;-146.25;91.74;52512.16;2089106;28;37353;-81
2023/01/18 00:37:13;;;;;;;7.43;4.63;;;;;;;-146.25;90.94;52497.97;2089274;28;20068;-81
2023/01/18 00:38:18;;;;;;;8.15;4.53;;;;;;;-146.25;91.35;52485.81;2089067;28;20072;-81
2023/01/18 00:39:19;;;;;;;7.63;4.50;;;;;;;-146.25;91.31;52504.03;2088949;28;28183;-81
2023/01/18 00:40:21;;;;;;;8.05;4.18;;;;;;;-146.25;91.05;52504.03;2089073;28;38234;-81
2023/01/18 00:41:23;;;;;;;8.88;4.50;;;;;;;-146.25;91.48;52506.06;2088695;28;20034;-81
2023/01/18 00:43:45;;;;;;;8.93;4.55;;;;;;;-146.25;91.41;52481.75;2094604;28;35373;-80
2023/01/18 00:44:47;;;;;;;7.28;4.63;;;;;;;-146.25;91.09;52485.81;2096843;28;40349;-81
2023/01/18 00:45:52;;;;;;;9.13;4.20;;;;;;;-146.25;90.95;52520.28;2096727;28;38045;-80
2023/01/18 00:46:54;;;;;;;7.22;4.18;;;;;;;-146.25;91.31;52504.03;2096759;28;38165;-80
2023/01/18 00:47:57;;;;;;;7.78;4.55;;;;;;;-146.25;91.47;52487.81;2096177;28;37512;-80
2023/01/18 00:48:58;;;;;;;8.23;5.00;;;;;;;-146.25;91.21;52518.25;2096884;28;39041;-80
2023/01/18 00:50:00;;;;;;;7.05;4.50;;;;;;;-146.25;91.60;52506.06;2096996;28;40264;-80
2023/01/18 00:51:02;;;;;;;7.80;4.80;;;;;;;-146.25;91.45;52522.28;2096969;28;40494;-79
2023/01/18 00:52:03;;;;;;;8.98;4.88;;;;;;;-146.25;91.18;52516.22;2097122;28;39828;-80
2023/01/18 00:53:05;;;;;;;7.07;4.88;;;;;;;-146.25;91.37;52550.69;2096320;28;38088;-80
2023/01/18 00:54:09;;;;;;;5.82;4.18;;;;;;;-146.25;91.28;52512.16;2096633;28;39588;-80
2023/01/18 00:55:15;;;;;;;7.90;4.40;;;;;;;-146.25;91.72;52487.81;2096507;28;36898;-80
2023/01/18 00:56:20;;;;;;;8.70;4.50;;;;;;;-146.25;91.78;52508.09;2095521;28;38760;-80
2023/01/18 00:57:22;;;;;;;8.10;4.93;;;;;;;-146.25;92.29;52526.34;2079801;28;41752;-80
2023/01/18 00:58:24;;;;;;;7.75;4.18;;;;;;;-146.25;91.89;52538.53;2080023;28;41476;-80
2023/01/18 00:59:25;;;;;;;7.10;3.92;;;;;;;-146.25;92.51;52510.13;2088419;28;38065;-80
2023/01/18 01:00:27;;;;;;;6.30;4.38;;;;;;;-146.25;92.26;52502.03;2088894;28;39850;-80
2023/01/18 01:01:29;;;;;;;5.63;4.20;;;;;;;-146.25;92.67;52510.13;2088333;28;41520;-80
2023/01/18 01:02:30;;;;;;;7.47;4.13;;;;;;;-146.25;92.76;52495.94;2088733;28;35880;-80
2023/01/18 01:06:42;;;;;;;11.20;4.43;;;;;;;-146.25;92.82;52518.25;2088533;28;37445;-80
2023/01/18 01:07:35;;;;;;;7.43;4.05;;;;;;;-146.25;93.15;52506.06;2088531;28;38346;-80
2023/01/18 01:08:37;;;;;;;6.93;4.45;;;;;;;-146.25;93.48;52512.16;2088774;28;40754;-79
2023/01/18 01:09:39;;;;;;;7.32;4.93;;;;;;;-146.25;93.07;52512.16;2088525;28;38127;-80
2023/01/18 01:10:41;;;;;;;5.97;4.55;;;;;;;-146.25;93.59;52497.97;2088825;28;38564;-79
2023/01/18 01:12:33;;;;;;;8.02;5.20;;;;;;;-146.25;93.36;52520.28;2088497;28;37523;-79
2023/01/18 01:26:36;;;;;;;9.02;4.72;;;;;;;-146.25;93.17;52487.81;2092032;28;43088;-78
2023/01/18 01:27:38;;;;;;;7.82;4.30;;;;;;;-146.25;93.21;52504.03;2096477;28;41235;-79
2023/01/18 01:28:44;;;;;;;7.35;4.80;;;;;;;-146.25;93.59;52518.25;2097511;28;26107;-79
2023/01/18 01:29:45;;;;;;;8.57;5.15;;;;;;;-146.25;93.41;52479.72;2096963;28;36157;-79
2023/01/18 01:30:47;;;;;;;7.45;4.82;;;;;;;-146.25;93.58;52514.19;2087535;28;38834;-79
2023/01/18 01:31:49;;;;;;;6.80;4.25;;;;;;;-146.25;93.78;52508.09;2087888;28;33732;-78
2023/01/18 01:32:50;;;;;;;7.88;5.32;;;;;;;-146.25;93.62;52487.81;2079272;28;39339;-79
2023/01/18 01:33:55;;;;;;;8.43;5.15;;;;;;;-146.25;94.16;52520.28;2072114;28;29299;-79
2023/01/18 01:34:57;;;;;;;8.38;4.93;;;;;;;-146.25;93.98;52520.28;2087810;28;41241;-78
2023/01/18 01:36:05;;;;;;;8.35;5.05;;;;;;;-146.25;94.38;52502.03;2097792;28;20032;-78
2023/01/18 01:37:07;;;;;;;9.13;4.93;;;;;;;-146.25;94.59;52526.34;2088525;28;42682;-78
2023/01/18 01:38:09;;;;;;;7.15;5.32;;;;;;;-146.25;94.08;52487.81;2089158;28;38198;-78
2023/01/18 01:39:12;;;;;;;9.57;5.38;;;;;;;-146.25;94.22;52514.19;2096610;28;38728;-78
2023/01/18 01:40:14;;;;;;;9.32;4.68;;;;;;;-146.25;94.26;52485.81;2096640;28;39371;-77
2023/01/18 01:41:26;;;;;;;9.25;5.07;;;;;;;-146.25;94.49;52516.22;2087188;28;37588;-78
2023/01/18 01:42:28;;;;;;;7.70;4.90;;;;;;;-146.25;94.71;52502.03;2079525;28;43109;-78
2023/01/18 01:43:43;;;;;;;7.78;4.80;;;;;;;-146.25;94.69;52481.75;2087706;28;35915;-78
2023/01/18 01:44:49;;;;;;;9.68;4.45;;;;;;;-146.25;94.69;52508.09;2096649;28;37660;-77
2023/01/18 01:45:51;;;;;;;9.02;4.90;;;;;;;-146.25;94.40;52514.19;2096794;28;39975;-78
2023/01/18 01:47:05;;;;;;;8.65;5.20;;;;;;;-146.25;94.66;52518.25;2096758;28;38835;-77
2023/01/18 01:48:09;;;;;;;6.32;4.90;;;;;;;-146.25;94.71;52467.56;2088022;28;40600;-77
2023/01/18 01:49:25;;;;;;;8.95;4.57;;;;;;;-146.25;94.94;52518.25;2081651;28;38095;-77
2023/01/18 01:50:37;;;;;;;10.52;5.10;;;;;;;-146.25;94.97;52481.75;2087031;28;38522;-75
2023/01/18 01:52:07;;;;;;;8.63;5.22;;;;;;;-146.25;95.25;52512.16;2091135;28;40155;-77
2023/01/18 01:53:10;;;;;;;8.50;5.10;;;;;;;-146.25;95.11;52524.31;2093778;28;37022;-76
2023/01/18 01:54:43;;;;;;;10.55;5.10;;;;;;;-146.25;95.64;52516.22;2086851;28;39833;-77
2023/01/18 01:55:45;;;;;;;8.63;5.30;;;;;;;-146.25;95.97;52489.84;2084220;28;41496;-77
2023/01/18 01:56:50;;;;;;;9.05;5.22;;;;;;;-146.25;95.89;52518.25;2095369;28;40017;-76
2023/01/18 01:58:07;;;;;;;9.10;5.75;;;;;;;-146.25;95.91;52510.13;2094619;28;27072;-76
2023/01/18 01:59:09;;;;;;;8.48;6.00;;;;;;;-146.25;95.87;52510.13;2095882;28;41351;-76
2023/01/18 02:00:23;;;;;;;13.45;6.10;;;;;;;-146.25;95.84;52532.44;2096069;28;42680;-76
2023/01/18 02:01:27;;;;;;;11.18;5.78;;;;;;;-146.25;96.10;52491.88;2096543;28;38981;-76
2023/01/18 02:02:31;;;;;;;11.20;6.72;;;;;;;-146.25;95.84;52508.09;2086513;28;40370;-76
2023/01/18 02:03:36;;;;;;;9.48;5.95;;;;;;;-146.25;95.82;52495.94;2087552;28;37350;-76
2023/01/18 02:04:43;;;;;;;9.75;6.38;;;;;;;-146.25;95.74;52530.41;2086706;28;40048;-75
2023/01/18 02:05:51;;;;;;;11.95;6.25;;;;;;;-146.25;95.85;52544.59;2088933;28;37287;-75
2023/01/18 02:06:52;;;;;;;13.70;6.68;;;;;;;-146.25;95.74;52516.22;2095737;28;40764;-75
2023/01/18 02:07:59;;;;;;;10.55;6.47;;;;;;;-146.25;95.99;52522.28;2096542;28;28425;-76
2023/01/18 02:09:06;;;;;;;11.18;6.20;;;;;;;-146.25;95.72;52520.28;2086309;28;40064;-76
2023/01/18 02:10:12;;;;;;;9.00;6.18;;;;;;;-146.25;95.52;52506.06;2088446;28;36000;-76
2023/01/18 02:11:13;;;;;;;10.35;6.72;;;;;;;-146.25;95.71;52524.31;2087269;28;41114;-76
2023/01/18 02:12:15;;;;;;;8.27;5.20;;;;;;;-146.25;95.54;52518.25;2086963;28;38331;-76
2023/01/18 02:13:21;;;;;;;9.02;5.85;;;;;;;-146.25;95.30;52520.28;2096752;28;40735;-76
2023/01/18 02:14:26;;;;;;;10.60;6.40;;;;;;;-146.25;95.43;52487.81;2097004;28;37985;-75
2023/01/18 02:15:39;;;;;;;10.68;6.63;;;;;;;-146.25;95.82;52514.19;2096654;28;39735;-76
2023/01/18 02:17:18;;;;;;;8.05;6.03;;;;;;;-146.25;95.48;52518.25;2087568;28;42091;-75
2023/01/18 02:18:33;;;;;;;9.18;6.15;;;;;;;-146.25;95.49;52469.56;2092417;28;40303;-75
2023/01/18 02:20:30;;;;;;;10.43;5.70;;;;;;;-146.25;95.47;52508.09;2092538;28;34445;-76
2023/01/18 02:21:42;;;;;;;9.27;6.10;;;;;;;-146.25;95.61;52534.47;2096512;28;38140;-75
2023/01/18 02:23:28;;;;;;;9.50;5.75;;;;;;;-146.25;95.26;52524.31;2086357;28;41685;-75
2023/01/18 02:24:48;;;;;;;7.63;5.40;;;;;;;-146.25;95.45;52479.72;2086366;28;38463;-75
2023/01/18 02:26:27;;;;;;;9.23;4.97;;;;;;;-146.25;94.88;52512.16;2086909;28;41378;-75
2023/01/18 02:27:57;;;;;;;7.90;6.07;;;;;;;-146.25;95.18;52510.13;2094336;28;36841;-75
2023/01/18 02:29:22;;;;;;;6.43;4.53;;;;;;;-146.25;95.27;52534.47;2087480;28;35718;-75
2023/01/18 02:30:41;;;;;;;8.77;5.43;;;;;;;-146.25;95.29;52530.41;2077372;28;41058;-75
2023/01/18 02:32:07;;;;;;;12.68;6.57;;;;;;;-146.25;95.31;52512.16;2085797;28;35678;-75
2023/01/18 02:33:49;;;;;;;11.52;6.05;;;;;;;-146.25;96.23;52516.22;2096150;28;38740;-74
2023/01/18 02:35:00;;;;;;;8.15;5.93;;;;;;;-146.25;95.94;52510.13;2095643;28;26009;-75
2023/01/18 02:36:04;;;;;;;8.52;6.45;;;;;;;-146.25;95.84;52495.94;2096406;28;36012;-74
2023/01/18 02:37:12;;;;;;;12.05;6.72;;;;;;;-146.25;95.90;52534.47;2094797;28;40910;-75
2023/01/18 02:38:26;;;;;;;8.82;6.05;;;;;;;-146.25;95.89;52514.19;2096338;28;38571;-74
2023/01/18 02:39:43;;;;;;;12.10;6.47;;;;;;;-146.25;95.78;52502.03;2095708;28;37537;-74
2023/01/18 02:40:59;;;;;;;10.05;6.70;;;;;;;-146.25;95.76;52493.91;2090734;28;43199;-74
2023/01/18 02:46:41;;;;;;;9.15;5.78;;;;;;;-146.25;95.72;52542.56;2095908;28;41851;-74
2023/01/18 02:47:46;;;;;;;11.20;6.45;;;;;;;-146.25;95.77;52487.81;2095674;28;43772;-75
2023/01/18 02:48:49;;;;;;;9.63;6.53;;;;;;;-146.25;95.82;52518.25;2095964;28;41075;-74
2023/01/18 02:49:51;;;;;;;12.88;7.10;;;;;;;-146.25;95.77;52544.59;2095651;28;34047;-74
2023/01/18 02:50:53;;;;;;;9.75;6.63;;;;;;;-146.25;95.76;52500.00;2096449;28;40708;-75
2023/01/18 02:52:06;;;;;;;10.75;7.00;;;;;;;-146.25;95.94;52552.72;2095699;28;41776;-75
2023/01/18 02:53:13;;;;;;;9.90;6.72;;;;;;;-146.25;95.95;52536.50;2087231;28;41644;-74
2023/01/18 02:54:23;;;;;;;12.88;7.25;;;;;;;-146.25;96.16;52483.78;2079847;28;42353;-74
2023/01/18 02:55:38;;;;;;;13.10;7.15;;;;;;;-146.25;96.03;52538.53;2090531;28;20889;-74
2023/01/18 02:56:51;;;;;;;11.50;6.95;;;;;;;-146.25;95.92;52522.28;2087214;28;40310;-74
2023/01/18 02:58:16;;;;;;;10.52;6.63;;;;;;;-146.25;95.67;52558.78;2089305;28;37533;-74
2023/01/18 02:59:35;;;;;;;10.98;7.00;;;;;;;-146.25;95.58;52562.84;2087524;28;42089;-75
2023/01/18 03:00:45;;;;;;;10.85;7.28;;;;;;;-146.25;95.62;52546.63;2092051;28;35937;-74
2023/01/18 03:01:56;;;;;;;11.77;6.75;;;;;;;-146.25;95.64;52526.34;2087475;28;42653;-74
2023/01/18 03:02:59;;;;;;;10.60;7.25;;;;;;;-146.25;95.62;52504.03;2081690;28;26987;-74
2023/01/18 03:04:13;;;;;;;11.10;6.82;;;;;;;-146.25;95.84;52548.66;2087077;28;43241;-74
2023/01/18 03:05:17;;;;;;;12.43;6.95;;;;;;;-146.25;95.79;52506.06;2079271;28;40870;-74
2023/01/18 03:06:20;;;;;;;12.48;7.45;;;;;;;-146.25;96.06;52530.41;2072640;28;37177;-74
2023/01/18 03:07:44;;;;;;;10.48;7.20;;;;;;;-146.25;95.83;52502.03;2071500;28;38542;-74
2023/01/18 03:08:51;;;;;;;12.77;6.90;;;;;;;-146.25;95.77;52514.19;2074014;28;40171;-73
2023/01/18 03:09:57;;;;;;;12.88;7.07;;;;;;;-146.25;95.54;52524.31;2073291;28;44114;-73
2023/01/18 03:11:08;;;;;;;13.52;7.25;;;;;;;-146.25;95.57;52493.91;2072819;28;20046;-73
2023/01/18 03:12:52;;;;;;;13.43;7.55;;;;;;;-146.25;96.21;52540.53;2073209;28;41367;-74
2023/01/18 03:14:36;;;;;;;12.07;6.68;;;;;;;-146.25;95.95;52467.56;2075560;28;20053;-74
2023/01/18 03:15:41;;;;;;;8.52;6.25;;;;;;;-146.25;95.75;52500.00;2072179;28;40993;-73
2023/01/18 03:17:24;;;;;;;14.05;6.72;;;;;;;-146.25;96.12;52502.03;2076245;28;20056;-74
2023/01/18 03:19:00;;;;;;;14.00;7.28;;;;;;;-146.25;96.60;52510.13;2088429;28;20045;-74
2023/01/18 03:20:09;;;;;;;10.82;7.15;;;;;;;-146.25;96.38;52512.16;2079208;28;43137;-73
2023/01/18 03:21:11;;;;;;;14.25;8.13;;;;;;;-146.25;96.64;52516.22;2087681;28;40576;-74
2023/01/18 03:22:14;;;;;;;11.77;8.15;;;;;;;-146.25;96.66;52514.19;2079045;28;39555;-74
2023/01/18 03:23:38;;;;;;;13.10;8.48;;;;;;;-146.25;96.62;52520.28;2080068;28;20082;-74
2023/01/18 03:24:43;;;;;;;12.95;8.02;;;;;;;-146.25;96.96;52542.56;2087277;28;39895;-74
2023/01/18 03:25:50;;;;;;;11.98;8.18;;;;;;;-146.25;96.79;52510.13;2090477;28;44009;-73
2023/01/18 03:34:31;;;;;;;11.48;7.57;;;;;;;-146.25;96.76;52575.00;2087328;28;39635;-74
2023/01/18 03:35:33;;;;;;;14.77;7.97;;;;;;;-146.25;97.06;52500.00;2095570;28;43094;-74
2023/01/18 03:36:42;;;;;;;15.65;8.10;;;;;;;-146.25;96.84;52540.53;2096128;28;36970;-74
2023/01/18 03:37:47;;;;;;;15.00;8.50;;;;;;;-146.25;97.02;52536.50;2095871;28;40790;-74
2023/01/18 03:39:03;;;;;;;12.68;8.40;;;;;;;-146.25;96.89;52520.28;2087646;28;24305;-74
2023/01/18 03:40:17;;;;;;;13.88;8.23;;;;;;;-146.25;97.02;52500.00;2081551;28;41775;-74
2023/01/18 03:41:23;;;;;;;19.00;8.82;;;;;;;-146.25;96.82;52534.47;2090945;28;41885;-74
2023/01/18 03:42:32;;;;;;;14.02;8.23;;;;;;;-146.25;96.68;52532.44;2087108;28;40966;-73
2023/01/18 03:43:36;;;;;;;12.10;8.35;;;;;;;-146.25;96.81;52506.06;2079494;28;39202;-74
2023/01/18 03:45:03;;;;;;;12.00;8.32;;;;;;;-146.25;96.84;52489.84;2080739;28;20034;-74
2023/01/18 03:46:06;;;;;;;12.80;8.43;;;;;;;-146.25;96.76;52542.56;2084164;28;38152;-74
2023/01/18 03:47:11;;;;;;;12.40;8.45;;;;;;;-146.25;96.92;52489.84;2083633;28;20048;-74
2023/01/18 03:48:13;;;;;;;12.10;8.18;;;;;;;-146.25;96.97;52489.84;2079460;28;40368;-74
2023/01/18 03:49:16;;;;;;;14.75;9.65;;;;;;;-146.25;96.87;52506.06;2080460;28;34905;-74
2023/01/18 03:50:27;;;;;;;11.73;8.27;;;;;;;-146.25;96.83;52526.34;2080203;28;36818;-74
2023/01/18 03:51:46;;;;;;;11.70;8.30;;;;;;;-146.25;96.61;52558.78;2082156;28;40007;-74
2023/01/18 03:52:54;;;;;;;14.00;8.52;;;;;;;-146.25;96.75;52526.34;2071980;28;41905;-74
2023/01/18 03:54:03;;;;;;;10.32;8.15;;;;;;;-146.25;96.93;52542.56;2068113;28;37439;-74
2023/01/18 03:55:17;;;;;;;10.82;7.95;;;;;;;-146.25;96.98;52512.16;2083322;28;20022;-74
2023/01/18 03:56:52;;;;;;;12.95;8.05;;;;;;;-146.25;97.11;52510.13;2088563;28;42639;-74
2023/01/18 03:58:01;;;;;;;16.85;7.82;;;;;;;-146.25;97.00;52491.88;2087936;28;38692;-74
2023/01/18 03:59:05;;;;;;;10.60;7.82;;;;;;;-146.25;97.22;52526.34;2080026;28;41682;-74
2023/01/18 04:00:11;;;;;;;11.20;8.25;;;;;;;-146.25;97.47;52502.03;2080780;28;39611;-74
2023/01/18 04:01:15;;;;;;;14.48;9.00;;;;;;;-146.25;97.21;52564.88;2089319;28;21273;-74
2023/01/18 04:02:19;;;;;;;14.77;8.98;;;;;;;-146.25;97.34;52514.19;2088663;28;41631;-72
2023/01/18 04:03:21;;;;;;;12.65;8.70;;;;;;;-146.25;97.30;52542.56;2088425;28;38275;-74
2023/01/18 04:04:22;;;;;;;13.52;8.73;;;;;;;-146.25;97.22;52522.28;2080915;28;32278;-74
2023/01/18 04:05:24;;;;;;;12.98;8.15;;;;;;;-146.25;97.48;52532.44;2080533;28;39751;-74
2023/01/18 04:06:28;;;;;;;15.20;9.65;;;;;;;-146.25;97.49;52554.75;2089747;28;20258;-74
2023/01/18 04:07:30;;;;;;;12.48;9.60;;;;;;;-146.25;97.86;52536.50;2089053;28;38947;-74
2023/01/18 04:08:32;;;;;;;13.27;9.18;;;;;;;-146.25;97.61;52463.50;2088681;28;39533;-75
2023/01/18 04:09:34;;;;;;;16.60;9.90;;;;;;;-146.25;97.65;52532.44;2089031;28;38288;-75
2023/01/18 04:10:37;;;;;;;13.82;9.57;;;;;;;-146.25;97.72;52489.84;2088889;28;40679;-75
2023/01/18 04:11:39;;;;;;;13.88;9.85;;;;;;;-146.25;97.66;52506.06;2089869;28;20037;-75
2023/01/18 04:12:41;;;;;;;14.30;9.90;;;;;;;-146.25;97.63;52495.94;2088523;28;41468;-75
2023/01/18 04:13:43;;;;;;;14.63;9.75;;;;;;;-146.25;97.77;52518.25;2089044;28;34557;-75
2023/01/18 04:14:44;;;;;;;14.15;9.30;;;;;;;-146.25;97.87;52542.56;2089883;28;20150;-75
2023/01/18 04:15:46;;;;;;;16.02;10.57;;;;;;;-146.25;97.92;52487.81;2089974;28;25962;-75
2023/01/18 04:16:48;;;;;;;15.63;10.38;;;;;;;-146.25;97.93;52512.16;2088820;28;40669;-75
2023/01/18 04:17:52;;;;;;;16.13;10.75;;;;;;;-146.25;97.99;52506.06;2088537;28;35599;-75
2023/01/18 04:18:54;;;;;;;13.43;9.15;;;;;;;-146.25;97.76;52512.16;2079920;28;40282;-75
2023/01/18 04:19:55;;;;;;;13.15;9.07;;;;;;;-146.25;97.76;52497.97;2072868;28;24671;-75
2023/01/18 04:20:57;;;;;;;13.73;9.82;;;;;;;-146.25;97.93;52534.47;2087606;28;20038;-75
2023/01/18 04:21:59;;;;;;;16.13;10.52;;;;;;;-146.25;98.05;52522.28;2088325;28;41661;-75
2023/01/18 04:23:01;;;;;;;14.32;9.63;;;;;;;-146.25;97.94;52463.50;2088087;28;42650;-75
2023/01/18 04:24:04;;;;;;;16.25;9.90;;;;;;;-146.25;97.78;52465.53;2088352;28;37162;-75
2023/01/18 04:25:06;;;;;;;17.05;10.10;;;;;;;-146.25;97.95;52473.63;2088482;28;39492;-75
2023/01/18 04:26:10;;;;;;;11.95;9.15;;;;;;;-146.25;97.98;52522.28;2098142;28;20890;-75
2023/01/18 04:27:12;;;;;;;16.00;10.43;;;;;;;-146.25;98.06;52518.25;2097307;28;36199;-76
2023/01/18 04:28:16;;;;;;;15.68;10.48;;;;;;;-146.25;98.01;52522.28;2097124;28;34764;-76
2023/01/18 04:29:17;;;;;;;14.15;10.43;;;;;;;-146.25;98.21;52506.06;2088007;28;40887;-75
2023/01/18 04:30:22;;;;;;;15.95;10.20;;;;;;;-146.25;98.04;52495.94;2088552;28;39596;-75
2023/01/18 04:31:24;;;;;;;14.98;10.43;;;;;;;-146.25;97.94;52506.06;2097726;28;20037;-75
2023/01/18 04:32:27;;;;;;;13.68;10.35;;;;;;;-146.25;97.81;52530.41;2097102;28;40311;-75
2023/01/18 04:33:29;;;;;;;12.48;9.18;;;;;;;-146.25;97.79;52526.34;2097912;28;20142;-76
2023/01/18 04:34:32;;;;;;;13.65;10.15;;;;;;;-146.25;97.94;52495.94;2096777;28;41395;-75
2023/01/18 04:35:37;;;;;;;14.32;10.15;;;;;;;-146.25;97.84;52504.03;2096996;28;38189;-75
2023/01/18 04:36:38;;;;;;;14.27;9.48;;;;;;;-146.25;97.79;52483.78;2088814;28;21219;-75
2023/01/18 04:37:40;;;;;;;15.40;9.73;;;;;;;-146.25;97.68;52532.44;2088350;28;42001;-75
2023/01/18 04:38:42;;;;;;;13.68;9.25;;;;;;;-146.25;97.74;52573.00;2096857;28;38104;-75
2023/01/18 04:39:46;;;;;;;13.85;9.70;;;;;;;-146.25;97.61;52566.91;2097505;28;20040;-75
2023/01/18 04:40:48;;;;;;;15.73;9.88;;;;;;;-146.25;97.68;52481.75;2096605;28;40042;-75
2023/01/18 04:41:50;;;;;;;15.60;9.35;;;;;;;-146.25;97.73;52581.09;2097104;28;33055;-75
2023/01/18 04:42:53;;;;;;;14.00;9.55;;;;;;;-146.25;97.89;52534.47;2088188;28;37453;-75
2023/01/18 04:43:55;;;;;;;16.25;10.45;;;;;;;-146.25;97.64;52534.47;2087993;28;41726;-76
2023/01/18 04:44:58;;;;;;;15.77;9.50;;;;;;;-146.25;97.78;52524.31;2097017;28;41664;-76
2023/01/18 04:46:00;;;;;;;18.02;10.23;;;;;;;-146.25;97.95;52495.94;2096834;28;40213;-75
2023/01/18 04:47:02;;;;;;;15.27;9.70;;;;;;;-146.25;97.96;52530.41;2097181;28;38662;-76
2023/01/18 04:48:04;;;;;;;15.57;10.68;;;;;;;-146.25;97.81;52506.06;2097160;28;39006;-76
2023/01/18 04:49:11;;;;;;;16.17;10.73;;;;;;;-146.25;98.04;52506.06;2096823;28;41787;-76
2023/01/18 04:50:12;;;;;;;14.88;9.65;;;;;;;-146.25;97.91;52520.28;2089930;28;20831;-76
2023/01/18 04:51:14;;;;;;;17.33;10.40;;;;;;;-146.25;97.71;52508.09;2097370;28;28090;-76
2023/01/18 04:52:16;;;;;;;15.65;10.68;;;;;;;-146.25;97.61;52526.34;2096887;28;37882;-75
2023/01/18 04:53:21;;;;;;;15.05;10.48;;;;;;;-146.25;97.61;52508.09;2098201;28;20029;-76
2023/01/18 04:54:23;;;;;;;16.05;11.02;;;;;;;-146.25;97.73;52489.84;2096599;28;41326;-76
2023/01/18 04:55:24;;;;;;;16.30;10.82;;;;;;;-146.25;97.75;52508.09;2097967;28;20929;-76
2023/01/18 04:56:26;;;;;;;17.05;10.98;;;;;;;-146.25;97.63;52566.91;2096957;28;39765;-75
2023/01/18 04:57:29;;;;;;;18.45;11.85;;;;;;;-146.25;97.71;52502.03;2096959;28;38588;-76
2023/01/18 04:58:30;;;;;;;16.08;11.00;;;;;;;-146.25;97.78;52510.13;2097427;28;20038;-75
2023/01/18 04:59:32;;;;;;;15.88;10.82;;;;;;;-146.25;97.54;52518.25;2096802;28;39234;-76
2023/01/18 05:00:34;;;;;;;17.13;11.05;;;;;;;-146.25;97.66;52506.06;2096510;28;38423;-76
2023/01/18 05:01:35;;;;;;;13.57;10.20;;;;;;;-146.25;97.73;52526.34;2087841;28;40240;-76
2023/01/18 05:02:38;;;;;;;18.80;11.05;;;;;;;-146.25;97.81;52554.75;2080761;28;20144;-76
2023/01/18 05:03:40;;;;;;;15.65;10.25;;;;;;;-146.25;97.76;52502.03;2088823;28;26043;-76
2023/01/18 05:04:42;;;;;;;13.82;10.15;;;;;;;-146.25;97.91;52512.16;2096748;28;39777;-76
2023/01/18 05:05:46;;;;;;;13.93;10.02;;;;;;;-146.25;97.50;52510.13;2096953;28;40387;-76
2023/01/18 05:06:48;;;;;;;17.92;11.60;;;;;;;-146.25;98.06;52518.25;2088077;28;40381;-76
2023/01/18 05:07:50;;;;;;;19.65;11.63;;;;;;;-146.25;98.14;52552.72;2088068;28;40343;-76
2023/01/18 05:08:52;;;;;;;18.00;11.95;;;;;;;-146.25;98.06;52524.31;2096403;28;43486;-76
2023/01/18 05:09:54;;;;;;;16.13;11.27;;;;;;;-146.25;97.97;52491.88;2097148;28;37889;-76
2023/01/18 05:11:03;;;;;;;15.65;11.80;;;;;;;-146.25;98.06;52516.22;2097658;28;20949;-76
2023/01/18 05:12:05;;;;;;;16.42;12.27;;;;;;;-146.25;97.85;52518.25;2096929;28;41381;-76
2023/01/18 05:13:07;;;;;;;15.55;12.02;;;;;;;-146.25;97.56;52554.75;2097162;28;38925;-76
2023/01/18 05:14:09;;;;;;;18.00;12.13;;;;;;;-146.25;97.65;52530.41;2096049;28;41017;-76
2023/01/18 05:15:10;;;;;;;15.98;12.27;;;;;;;-146.25;97.63;52510.13;2096154;28;39562;-76
2023/01/18 05:16:20;;;;;;;16.55;12.18;;;;;;;-146.25;97.64;52502.03;2096614;28;38828;-76
2023/01/18 05:17:26;;;;;;;19.42;11.65;;;;;;;-146.25;97.58;52554.75;2096852;28;39668;-76
2023/01/18 05:18:30;;;;;;;16.15;11.35;;;;;;;-146.25;97.45;52504.03;2088168;28;36707;-76
2023/01/18 05:19:32;;;;;;;17.55;11.18;;;;;;;-146.25;97.64;52481.75;2088684;28;40618;-76
2023/01/18 05:20:33;;;;;;;16.73;11.45;;;;;;;-146.25;97.73;52506.06;2097629;28;20254;-76
2023/01/18 05:21:35;;;;;;;18.75;11.60;;;;;;;-146.25;97.72;52506.06;2097169;28;39200;-75
2023/01/18 05:22:37;;;;;;;16.40;12.30;;;;;;;-146.25;97.63;52526.34;2096774;28;39412;-76
2023/01/18 05:23:41;;;;;;;17.48;11.90;;;;;;;-146.25;97.86;52500.00;2096959;28;38797;-76
2023/01/18 05:24:45;;;;;;;16.92;11.98;;;;;;;-146.25;97.91;52530.41;2097467;28;20921;-76
2023/01/18 05:25:55;;;;;;;18.83;12.80;;;;;;;-146.25;97.83;52506.06;2096497;28;39235;-76
2023/01/18 05:26:57;;;;;;;19.25;11.68;;;;;;;-146.25;97.73;52536.50;2096904;28;37873;-76
2023/01/18 05:27:59;;;;;;;16.33;10.98;;;;;;;-146.25;97.71;52510.13;2087155;28;41423;-76
2023/01/18 05:29:01;;;;;;;16.52;11.90;;;;;;;-146.25;97.77;52479.72;2088696;28;25934;-76
2023/01/18 05:30:03;;;;;;;18.35;11.63;;;;;;;-146.25;97.83;52514.19;2096725;28;39204;-76
2023/01/18 05:31:08;;;;;;;19.27;12.57;;;;;;;-146.25;97.82;52550.69;2096769;28;40513;-76
2023/01/18 05:32:10;;;;;;;17.67;11.90;;;;;;;-146.25;97.88;52510.13;2097201;28;20049;-75
2023/01/18 05:33:11;;;;;;;16.73;12.13;;;;;;;-146.25;97.90;52528.38;2096654;28;37999;-76
2023/01/18 05:34:13;;;;;;;17.45;12.50;;;;;;;-146.25;97.66;52522.28;2098065;28;20041;-76